createdAt,value
2022-11-30T00:00:57.267Z,99.90
2022-11-30T00:01:59.633Z,99.90
2022-11-30T00:03:03.478Z,99.90
2022-11-30T00:04:05.837Z,99.90
2022-11-30T00:05:10.731Z,99.90
2022-11-30T00:06:15.724Z,99.90
2022-11-30T00:07:19.305Z,99.90
2022-11-30T00:08:21.555Z,99.90
2022-11-30T00:09:25.728Z,99.90
2022-11-30T00:10:27.915Z,99.90
2022-11-30T00:11:32.395Z,99.90
2022-11-30T00:12:35.655Z,99.90
2022-11-30T00:13:38.850Z,99.90
2022-11-30T00:14:41.003Z,99.90
2022-11-30T00:15:44.644Z,99.90
2022-11-30T00:16:47.214Z,99.90
2022-11-30T00:17:51.039Z,99.90
2022-11-30T00:18:53.793Z,99.90
2022-11-30T00:20:00.061Z,99.90
2022-11-30T00:21:05.687Z,99.90
2022-11-30T00:22:08.882Z,99.90
2022-11-30T00:23:11.361Z,99.90
2022-11-30T00:24:14.517Z,99.90
2022-11-30T00:25:16.939Z,99.90
2022-11-30T00:26:22.993Z,99.90
2022-11-30T00:27:25.363Z,99.90
2022-11-30T00:28:29.880Z,99.90
2022-11-30T00:29:32.129Z,99.90
2022-11-30T00:30:35.331Z,99.90
2022-11-30T00:31:37.626Z,99.90
2022-11-30T00:32:40.962Z,99.90
2022-11-30T00:33:44.396Z,99.90
2022-11-30T00:34:47.824Z,99.90
2022-11-30T00:35:57.135Z,99.90
2022-11-30T00:37:01.588Z,99.90
2022-11-30T00:38:04.343Z,99.90
2022-11-30T00:39:07.830Z,99.90
2022-11-30T00:40:10.814Z,99.90
2022-11-30T00:41:14.731Z,99.90
2022-11-30T00:42:17.148Z,99.90
2022-11-30T00:43:21.159Z,99.90
2022-11-30T00:44:25.945Z,99.90
2022-11-30T00:45:29.087Z,99.90
2022-11-30T00:46:31.348Z,99.90
2022-11-30T00:47:34.544Z,99.90
2022-11-30T00:48:38.012Z,99.90
2022-11-30T00:49:41.220Z,99.90
2022-11-30T00:50:43.525Z,99.90
2022-11-30T00:51:46.812Z,99.90
2022-11-30T00:52:50.355Z,99.90
2022-11-30T00:53:55.917Z,99.90
2022-11-30T00:54:58.324Z,99.90
2022-11-30T00:56:01.882Z,99.90
2022-11-30T00:57:04.141Z,99.90
2022-11-30T00:58:07.715Z,99.90
2022-11-30T00:59:11.239Z,99.90
2022-11-30T01:00:14.002Z,99.90
2022-11-30T01:01:17.531Z,99.90
2022-11-30T01:02:19.795Z,99.90
2022-11-30T01:03:23.157Z,99.90
2022-11-30T01:04:25.876Z,99.90
2022-11-30T01:05:29.255Z,99.90
2022-11-30T01:06:31.555Z,99.90
2022-11-30T01:07:34.777Z,99.90
2022-11-30T01:08:38.905Z,99.90
2022-11-30T01:09:42.316Z,99.90
2022-11-30T01:10:44.996Z,99.90
2022-11-30T01:11:51.323Z,99.90
2022-11-30T01:12:54.338Z,99.90
2022-11-30T01:13:59.754Z,99.90
2022-11-30T01:15:02.168Z,99.90
2022-11-30T01:16:11.131Z,99.90
2022-11-30T01:17:13.614Z,99.90
2022-11-30T01:18:17.535Z,99.90
2022-11-30T01:19:19.880Z,99.90
2022-11-30T01:20:23.222Z,99.90
2022-11-30T01:21:29.647Z,99.90
2022-11-30T01:22:31.933Z,99.90
2022-11-30T01:23:36.269Z,99.90
2022-11-30T01:24:40.420Z,99.90
2022-11-30T01:25:43.615Z,99.90
2022-11-30T01:26:46.767Z,99.90
2022-11-30T01:27:49.667Z,99.90
2022-11-30T01:28:54.622Z,99.90
2022-11-30T01:29:58.416Z,99.90
2022-11-30T01:31:02.579Z,99.90
2022-11-30T01:32:06.609Z,99.90
2022-11-30T01:33:08.912Z,99.90
2022-11-30T01:34:12.344Z,99.90
2022-11-30T01:35:14.770Z,99.90
2022-11-30T01:36:20.834Z,99.90
2022-11-30T01:37:23.294Z,99.90
2022-11-30T01:38:26.567Z,99.90
2022-11-30T01:39:28.832Z,99.90
2022-11-30T01:40:33.677Z,99.90
2022-11-30T01:41:37.606Z,99.90
2022-11-30T01:42:47.164Z,99.90
2022-11-30T01:43:52.191Z,99.90
2022-11-30T01:44:57.683Z,99.90
2022-11-30T01:46:01.748Z,99.90
2022-11-30T01:47:11.272Z,99.90
2022-11-30T01:48:13.761Z,99.90
2022-11-30T01:49:24.269Z,99.90
2022-11-30T01:50:32.857Z,99.90
2022-11-30T01:51:40.949Z,99.90
2022-11-30T01:52:47.254Z,99.90
2022-11-30T01:53:50.666Z,99.90
2022-11-30T01:54:57.785Z,99.90
2022-11-30T01:56:02.736Z,99.90
2022-11-30T01:57:13.469Z,99.90
2022-11-30T01:58:20.622Z,99.90
2022-11-30T01:59:26.689Z,99.90
2022-11-30T02:00:30.368Z,99.90
2022-11-30T02:01:35.133Z,99.90
2022-11-30T02:02:46.613Z,99.90
2022-11-30T02:03:56.999Z,99.90
2022-11-30T02:05:01.009Z,99.90
2022-11-30T02:06:03.294Z,99.90
2022-11-30T02:07:08.466Z,99.90
2022-11-30T02:08:11.305Z,99.90
2022-11-30T02:09:18.166Z,99.90
2022-11-30T02:10:27.154Z,99.90
2022-11-30T02:11:32.104Z,99.90
2022-11-30T02:12:43.071Z,99.90
2022-11-30T02:14:13.578Z,99.90
2022-11-30T02:15:26.119Z,99.90
2022-11-30T02:16:42.450Z,99.90
2022-11-30T02:17:57.319Z,99.90
2022-11-30T02:19:23.770Z,99.90
2022-11-30T02:20:46.466Z,99.90
2022-11-30T02:21:57.863Z,99.90
2022-11-30T02:23:43.473Z,99.90
2022-11-30T02:25:08.345Z,99.90
2022-11-30T02:26:32.669Z,99.90
2022-11-30T02:28:04.763Z,99.90
2022-11-30T02:29:22.706Z,99.90
2022-11-30T02:30:26.401Z,99.90
2022-11-30T02:31:38.106Z,99.90
2022-11-30T02:32:49.197Z,99.90
2022-11-30T02:33:54.756Z,99.90
2022-11-30T02:35:02.436Z,99.90
2022-11-30T02:36:09.938Z,99.90
2022-11-30T02:37:19.382Z,99.90
2022-11-30T02:38:24.322Z,99.90
2022-11-30T02:39:27.652Z,99.90
2022-11-30T02:40:30.456Z,99.90
2022-11-30T02:41:40.333Z,99.90
2022-11-30T02:42:42.615Z,99.90
2022-11-30T02:43:46.583Z,99.90
2022-11-30T02:44:53.944Z,99.90
2022-11-30T02:46:06.675Z,99.90
2022-11-30T02:47:21.264Z,99.90
2022-11-30T02:48:33.686Z,99.90
2022-11-30T02:49:44.426Z,99.90
2022-11-30T02:50:53.755Z,99.90
2022-11-30T02:51:58.536Z,99.90
2022-11-30T02:53:02.587Z,99.90
2022-11-30T02:54:05.431Z,99.90
2022-11-30T02:55:11.781Z,99.90
2022-11-30T02:56:13.980Z,99.90
2022-11-30T02:57:17.190Z,99.90
2022-11-30T02:58:19.999Z,99.90
2022-11-30T02:59:23.428Z,99.90
2022-11-30T03:00:27.385Z,99.90
2022-11-30T03:01:31.336Z,99.90
2022-11-30T03:02:33.920Z,99.90
2022-11-30T03:03:37.419Z,99.90
2022-11-30T03:04:39.694Z,99.90
2022-11-30T03:05:42.979Z,99.90
2022-11-30T03:06:45.219Z,99.90
2022-11-30T03:07:48.450Z,99.90
2022-11-30T03:08:50.864Z,99.90
2022-11-30T03:09:54.308Z,99.90
2022-11-30T03:10:56.430Z,99.90
2022-11-30T03:11:59.616Z,99.90
2022-11-30T03:13:01.906Z,99.90
2022-11-30T03:14:05.463Z,99.90
2022-11-30T03:15:08.802Z,99.90
2022-11-30T03:16:15.039Z,99.90
2022-11-30T03:17:17.279Z,99.90
2022-11-30T03:18:20.482Z,99.90
2022-11-30T03:19:23.100Z,99.90
2022-11-30T03:20:26.820Z,99.90
2022-11-30T03:21:29.231Z,99.90
2022-11-30T03:22:32.514Z,99.90
2022-11-30T03:23:35.707Z,99.90
2022-11-30T03:24:39.035Z,99.90
2022-11-30T03:25:41.374Z,99.90
2022-11-30T03:26:44.559Z,99.90
2022-11-30T03:27:46.767Z,99.90
2022-11-30T03:28:50.070Z,99.90
2022-11-30T03:29:52.397Z,99.90
2022-11-30T03:31:27.837Z,99.90
2022-11-30T03:32:31.377Z,99.90
2022-11-30T03:33:34.620Z,99.90
2022-11-30T03:34:36.911Z,99.90
2022-11-30T03:35:40.270Z,99.90
2022-11-30T03:36:42.624Z,99.90
2022-11-30T03:37:45.997Z,99.90
2022-11-30T03:38:48.171Z,99.90
2022-11-30T03:39:57.784Z,99.90
2022-11-30T03:41:01.962Z,99.90
2022-11-30T03:42:05.548Z,99.90
2022-11-30T03:43:08.000Z,99.90
2022-11-30T03:44:11.537Z,99.90
2022-11-30T03:45:13.826Z,99.70
2022-11-30T03:46:17.141Z,99.90
2022-11-30T03:47:20.965Z,99.90
2022-11-30T03:48:25.214Z,99.90
2022-11-30T03:49:27.376Z,99.90
2022-11-30T03:50:30.550Z,99.90
2022-11-30T03:51:32.794Z,99.90
2022-11-30T03:52:36.095Z,99.90
2022-11-30T03:53:39.589Z,99.80
2022-11-30T03:54:42.963Z,99.90
2022-11-30T03:55:45.788Z,99.70
2022-11-30T03:56:48.868Z,99.80
2022-11-30T03:57:51.099Z,99.80
2022-11-30T03:58:54.505Z,99.90
2022-11-30T03:59:56.709Z,99.90
2022-11-30T04:01:02.301Z,99.40
2022-11-30T04:02:04.521Z,99.60
2022-11-30T04:03:09.089Z,99.90
2022-11-30T04:04:12.212Z,99.90
2022-11-30T04:05:18.248Z,99.90
2022-11-30T04:06:22.040Z,99.90
2022-11-30T04:07:27.333Z,99.90
2022-11-30T04:08:30.494Z,99.90
2022-11-30T04:09:36.803Z,99.90
2022-11-30T04:10:39.449Z,99.90
2022-11-30T04:11:42.727Z,99.90
2022-11-30T04:12:44.927Z,99.90
2022-11-30T04:13:48.117Z,99.90
2022-11-30T04:14:50.953Z,99.90
2022-11-30T04:15:55.406Z,99.90
2022-11-30T04:16:58.791Z,99.90
2022-11-30T04:18:00.980Z,99.90
2022-11-30T04:19:05.638Z,99.90
2022-11-30T04:20:08.779Z,99.90
2022-11-30T04:21:12.529Z,99.90
2022-11-30T04:22:14.768Z,99.90
2022-11-30T04:23:17.944Z,99.90
2022-11-30T04:24:20.234Z,99.90
2022-11-30T04:25:23.525Z,99.90
2022-11-30T04:26:25.789Z,99.90
2022-11-30T04:27:30.415Z,99.90
2022-11-30T04:28:33.397Z,99.70
2022-11-30T04:29:36.586Z,99.80
2022-11-30T04:30:39.056Z,99.80
2022-11-30T04:31:42.386Z,99.80
2022-11-30T04:32:44.797Z,99.70
2022-11-30T04:33:48.050Z,99.60
2022-11-30T04:34:51.637Z,99.70
2022-11-30T04:35:58.855Z,99.70
2022-11-30T04:37:01.035Z,99.70
2022-11-30T04:38:04.418Z,99.70
2022-11-30T04:39:06.856Z,99.70
2022-11-30T04:40:10.836Z,99.90
2022-11-30T04:41:13.659Z,99.90
2022-11-30T04:42:16.857Z,99.90
2022-11-30T04:43:19.584Z,99.90
2022-11-30T04:44:22.819Z,99.90
2022-11-30T04:45:25.226Z,99.90
2022-11-30T04:46:28.756Z,99.90
2022-11-30T04:47:30.998Z,99.90
2022-11-30T04:48:35.145Z,99.90
2022-11-30T04:49:37.283Z,99.80
2022-11-30T04:50:43.252Z,99.80
2022-11-30T04:51:45.666Z,99.90
2022-11-30T04:52:48.830Z,99.90
2022-11-30T04:53:51.401Z,99.90
2022-11-30T04:54:56.833Z,99.90
2022-11-30T04:55:59.514Z,99.90
2022-11-30T04:57:03.190Z,99.90
2022-11-30T04:58:05.934Z,99.90
2022-11-30T04:59:09.506Z,99.90
2022-11-30T05:00:12.950Z,99.90
2022-11-30T05:01:16.247Z,99.90
2022-11-30T05:02:18.776Z,99.60
2022-11-30T05:03:21.921Z,99.70
2022-11-30T05:04:24.193Z,99.80
2022-11-30T05:05:27.388Z,99.90
2022-11-30T05:06:30.888Z,99.70
2022-11-30T05:07:34.572Z,99.80
2022-11-30T05:08:36.860Z,99.70
2022-11-30T05:09:39.993Z,99.60
2022-11-30T05:10:42.318Z,99.50
2022-11-30T05:11:47.067Z,99.60
2022-11-30T05:12:50.626Z,99.60
2022-11-30T05:13:53.820Z,99.90
2022-11-30T05:14:56.240Z,99.60
2022-11-30T05:15:59.431Z,99.70
2022-11-30T05:17:01.940Z,99.70
2022-11-30T05:18:05.508Z,99.90
2022-11-30T05:19:07.716Z,99.90
2022-11-30T05:20:11.784Z,99.90
2022-11-30T05:21:15.681Z,99.90
2022-11-30T05:22:19.248Z,99.80
2022-11-30T05:23:23.361Z,99.70
2022-11-30T05:24:25.534Z,99.40
2022-11-30T05:25:28.783Z,99.40
2022-11-30T05:26:31.158Z,99.20
2022-11-30T05:27:35.344Z,99.50
2022-11-30T05:28:38.664Z,99.50
2022-11-30T05:29:41.887Z,99.50
2022-11-30T05:30:44.536Z,99.40
2022-11-30T05:31:47.766Z,99.30
2022-11-30T05:32:50.021Z,99.30
2022-11-30T05:33:57.856Z,99.30
2022-11-30T05:35:00.125Z,99.90
2022-11-30T05:36:08.759Z,99.50
2022-11-30T05:37:12.789Z,99.50
2022-11-30T05:38:17.263Z,99.50
2022-11-30T05:39:19.769Z,99.30
2022-11-30T05:40:22.934Z,99.40
2022-11-30T05:41:25.168Z,99.40
2022-11-30T05:42:28.432Z,99.50
2022-11-30T05:43:30.602Z,99.60
2022-11-30T05:44:34.236Z,99.60
2022-11-30T05:45:39.212Z,99.50
2022-11-30T05:46:42.563Z,99.40
2022-11-30T05:47:44.804Z,99.40
2022-11-30T05:48:48.282Z,99.40
2022-11-30T05:49:50.620Z,99.00
2022-11-30T05:50:53.830Z,99.60
2022-11-30T05:51:56.155Z,99.70
2022-11-30T05:53:00.951Z,99.80
2022-11-30T05:54:05.144Z,99.90
2022-11-30T05:55:09.005Z,99.90
2022-11-30T05:56:14.587Z,99.80
2022-11-30T05:57:16.824Z,99.90
2022-11-30T05:58:20.107Z,99.50
2022-11-30T05:59:22.814Z,99.90
2022-11-30T06:00:26.324Z,99.80
2022-11-30T06:01:29.563Z,99.80
2022-11-30T06:02:32.920Z,99.90
2022-11-30T06:03:36.410Z,99.90
2022-11-30T06:04:39.802Z,99.90
2022-11-30T06:05:42.054Z,99.80
2022-11-30T06:06:45.245Z,99.90
2022-11-30T06:07:47.550Z,99.90
2022-11-30T06:08:51.322Z,99.90
2022-11-30T06:09:55.201Z,99.70
2022-11-30T06:11:02.103Z,99.80
2022-11-30T06:12:04.679Z,99.80
2022-11-30T06:13:09.810Z,99.50
2022-11-30T06:14:12.991Z,99.90
2022-11-30T06:15:16.786Z,99.90
2022-11-30T06:16:20.089Z,99.90
2022-11-30T06:17:22.362Z,99.90
2022-11-30T06:18:25.600Z,99.90
2022-11-30T06:19:27.780Z,99.90
2022-11-30T06:20:31.355Z,99.90
2022-11-30T06:21:33.899Z,99.90
2022-11-30T06:22:37.076Z,99.90
2022-11-30T06:23:42.426Z,99.90
2022-11-30T06:24:48.135Z,99.90
2022-11-30T06:25:52.016Z,99.90
2022-11-30T06:26:55.534Z,99.90
2022-11-30T06:27:57.876Z,99.90
2022-11-30T06:29:01.195Z,99.90
2022-11-30T06:30:07.609Z,99.90
2022-11-30T06:31:11.708Z,99.90
2022-11-30T06:32:14.074Z,99.90
2022-11-30T06:33:22.637Z,99.70
2022-11-30T06:34:25.176Z,99.80
2022-11-30T06:35:28.377Z,99.90
2022-11-30T06:36:35.773Z,99.90
2022-11-30T06:37:41.666Z,99.90
2022-11-30T06:38:43.814Z,99.90
2022-11-30T06:40:06.125Z,99.90
2022-11-30T06:41:14.547Z,99.90
2022-11-30T06:42:19.868Z,99.90
2022-11-30T06:43:23.118Z,99.90
2022-11-30T06:44:25.328Z,99.90
2022-11-30T06:45:28.945Z,99.90
2022-11-30T06:46:31.200Z,99.90
2022-11-30T06:47:34.938Z,99.90
2022-11-30T06:48:37.234Z,99.90
2022-11-30T06:49:40.524Z,99.90
2022-11-30T06:50:49.757Z,99.90
2022-11-30T06:51:53.536Z,99.90
2022-11-30T06:52:56.618Z,99.90
2022-11-30T06:53:59.892Z,99.90
2022-11-30T06:55:02.874Z,99.90
2022-11-30T06:56:10.516Z,99.90
2022-11-30T06:57:15.687Z,99.90
2022-11-30T06:58:18.267Z,99.90
2022-11-30T06:59:21.578Z,99.90
2022-11-30T07:00:24.204Z,99.90
2022-11-30T07:01:27.840Z,99.90
2022-11-30T07:02:30.162Z,99.90
2022-11-30T07:03:33.559Z,99.90
2022-11-30T07:04:36.772Z,99.90
2022-11-30T07:05:44.360Z,99.90
2022-11-30T07:06:47.724Z,99.90
2022-11-30T07:07:50.084Z,99.90
2022-11-30T07:08:53.437Z,99.90
2022-11-30T07:09:55.632Z,99.90
2022-11-30T07:11:01.109Z,99.90
2022-11-30T07:12:07.003Z,99.90
2022-11-30T07:13:16.854Z,99.90
2022-11-30T07:14:20.443Z,99.90
2022-11-30T07:15:23.086Z,99.90
2022-11-30T07:16:26.308Z,99.90
2022-11-30T07:17:30.004Z,99.90
2022-11-30T07:18:36.182Z,99.90
2022-11-30T07:19:38.509Z,99.90
2022-11-30T07:20:42.165Z,99.90
2022-11-30T07:21:44.852Z,99.90
2022-11-30T07:22:48.382Z,99.90
2022-11-30T07:24:20.518Z,99.90
2022-11-30T07:25:41.372Z,99.90
2022-11-30T07:26:44.836Z,99.90
2022-11-30T07:27:47.220Z,99.90
2022-11-30T07:28:55.547Z,99.90
2022-11-30T07:29:58.000Z,99.90
2022-11-30T07:31:01.316Z,99.90
2022-11-30T07:32:07.508Z,99.90
2022-11-30T07:33:10.872Z,99.90
2022-11-30T07:34:14.204Z,99.90
2022-11-30T07:35:16.710Z,99.90
2022-11-30T07:36:22.363Z,99.90
2022-11-30T07:37:25.585Z,99.90
2022-11-30T07:38:27.791Z,99.90
2022-11-30T07:39:31.288Z,99.90
2022-11-30T07:40:33.515Z,99.90
2022-11-30T07:41:37.047Z,99.90
2022-11-30T07:42:41.891Z,99.90
2022-11-30T07:43:45.659Z,99.90
2022-11-30T07:44:55.205Z,99.90
2022-11-30T07:46:00.925Z,99.90
2022-11-30T07:47:04.306Z,99.90
2022-11-30T07:48:06.850Z,99.90
2022-11-30T07:49:13.964Z,99.90
2022-11-30T07:50:17.199Z,99.90
2022-11-30T07:51:21.762Z,99.90
2022-11-30T07:52:25.620Z,99.90
2022-11-30T07:53:28.792Z,99.90
2022-11-30T07:54:32.119Z,99.90
2022-11-30T07:55:34.742Z,99.90
2022-11-30T07:56:37.936Z,99.90
2022-11-30T07:57:40.742Z,99.90
2022-11-30T07:58:45.129Z,99.90
2022-11-30T07:59:50.383Z,99.90
2022-11-30T08:00:55.473Z,99.90
2022-11-30T08:02:00.487Z,99.90
2022-11-30T08:03:03.546Z,99.90
2022-11-30T08:04:07.152Z,99.90
2022-11-30T08:05:12.230Z,99.90
2022-11-30T08:06:19.841Z,99.90
2022-11-30T08:07:22.170Z,99.90
2022-11-30T08:08:25.980Z,99.90
2022-11-30T08:09:29.175Z,99.90
2022-11-30T08:10:31.976Z,99.90
2022-11-30T08:11:37.192Z,99.90
2022-11-30T08:12:39.408Z,99.90
2022-11-30T08:13:43.157Z,99.90
2022-11-30T08:15:18.349Z,99.90
2022-11-30T08:16:14.133Z,99.90
2022-11-30T08:17:17.608Z,99.90
2022-11-30T08:18:21.039Z,99.90
2022-11-30T08:19:26.508Z,99.90
2022-11-30T08:20:29.040Z,99.90
2022-11-30T08:21:33.132Z,99.90
2022-11-30T08:22:37.035Z,99.90
2022-11-30T08:23:43.656Z,99.90
2022-11-30T08:24:47.262Z,99.90
2022-11-30T08:25:49.803Z,99.90
2022-11-30T08:26:54.015Z,99.90
2022-11-30T08:27:59.545Z,99.90
2022-11-30T08:29:03.974Z,99.90
2022-11-30T08:30:07.960Z,99.90
2022-11-30T08:31:16.157Z,99.90
2022-11-30T08:32:19.866Z,99.90
2022-11-30T08:33:22.317Z,99.90
2022-11-30T08:34:26.642Z,99.90
2022-11-30T08:35:29.405Z,99.90
2022-11-30T08:36:34.133Z,99.90
2022-11-30T08:37:38.157Z,99.90
2022-11-30T08:38:43.320Z,99.90
2022-11-30T08:39:45.668Z,99.90
2022-11-30T08:40:48.995Z,99.90
2022-11-30T08:41:53.118Z,99.90
2022-11-30T08:42:55.660Z,99.90
2022-11-30T08:44:00.499Z,99.90
2022-11-30T08:45:02.931Z,99.90
2022-11-30T08:46:34.897Z,99.90
2022-11-30T08:47:34.442Z,99.90
2022-11-30T08:48:37.267Z,99.90
2022-11-30T08:49:40.928Z,99.90
2022-11-30T08:50:43.411Z,99.90
2022-11-30T08:53:10.049Z,99.90
2022-11-30T08:54:12.431Z,99.90
2022-11-30T08:55:16.587Z,99.90
2022-11-30T08:56:23.127Z,99.90
2022-11-30T08:57:26.906Z,99.90
2022-11-30T08:58:33.362Z,99.90
2022-11-30T08:59:36.621Z,99.90
2022-11-30T09:00:40.147Z,99.90
2022-11-30T09:01:43.551Z,99.90
2022-11-30T09:02:48.373Z,99.90
2022-11-30T09:03:54.645Z,99.90
2022-11-30T09:04:58.242Z,99.90
2022-11-30T09:06:06.015Z,99.90
2022-11-30T09:07:09.649Z,99.90
2022-11-30T09:08:13.048Z,99.90
2022-11-30T09:09:16.476Z,99.90
2022-11-30T09:10:22.929Z,99.90
2022-11-30T09:11:29.391Z,99.90
2022-11-30T09:12:35.795Z,99.90
2022-11-30T09:13:39.187Z,99.90
2022-11-30T09:14:42.791Z,99.90
2022-11-30T09:15:55.611Z,99.90
2022-11-30T09:16:58.199Z,99.90
2022-11-30T09:18:05.426Z,99.90
2022-11-30T09:19:07.638Z,99.90
2022-11-30T09:20:11.978Z,99.90
2022-11-30T09:21:17.297Z,99.90
2022-11-30T09:22:20.832Z,99.90
2022-11-30T09:23:23.194Z,99.90
2022-11-30T09:24:27.816Z,99.90
2022-11-30T09:25:31.072Z,99.90
2022-11-30T09:26:36.447Z,99.90
2022-11-30T09:27:40.462Z,99.90
2022-11-30T09:28:42.931Z,99.90
2022-11-30T09:29:46.219Z,99.90
2022-11-30T09:30:48.635Z,99.90
2022-11-30T09:31:52.019Z,99.90
2022-11-30T09:32:55.663Z,99.90
2022-11-30T09:33:59.435Z,99.90
2022-11-30T09:35:02.739Z,99.90
2022-11-30T09:36:09.886Z,99.90
2022-11-30T09:37:13.200Z,99.90
2022-11-30T09:38:15.910Z,99.90
2022-11-30T09:39:20.248Z,99.90
2022-11-30T09:40:23.341Z,99.90
2022-11-30T09:41:53.997Z,99.90
2022-11-30T09:43:07.883Z,99.90
2022-11-30T09:44:23.126Z,99.90
2022-11-30T09:45:33.866Z,99.90
2022-11-30T09:46:42.565Z,99.90
2022-11-30T09:48:14.118Z,99.90
2022-11-30T09:49:24.595Z,99.90
2022-11-30T09:50:36.653Z,99.90
2022-11-30T09:51:46.423Z,99.90
2022-11-30T09:52:53.419Z,99.90
2022-11-30T09:54:00.051Z,99.90
2022-11-30T09:55:09.110Z,99.90
2022-11-30T09:56:23.871Z,99.90
2022-11-30T09:57:29.921Z,99.90
2022-11-30T09:58:46.899Z,99.90
2022-11-30T09:59:57.394Z,99.90
2022-11-30T10:01:06.549Z,99.90
2022-11-30T10:02:18.259Z,99.90
2022-11-30T10:03:24.760Z,99.90
2022-11-30T10:04:30.117Z,99.90
2022-11-30T10:05:47.034Z,99.90
2022-11-30T10:07:03.950Z,99.90
2022-11-30T10:08:26.616Z,99.90
2022-11-30T10:09:49.448Z,99.90
2022-11-30T10:11:29.440Z,99.90
2022-11-30T10:12:41.320Z,99.90
2022-11-30T10:14:02.820Z,99.90
2022-11-30T10:15:31.428Z,99.90
2022-11-30T10:16:45.419Z,99.90
2022-11-30T10:17:56.197Z,99.90
2022-11-30T10:19:09.115Z,99.90
2022-11-30T10:20:43.236Z,99.90
2022-11-30T10:22:02.614Z,99.90
2022-11-30T10:23:24.584Z,99.90
2022-11-30T10:24:41.529Z,99.90
2022-11-30T10:25:57.023Z,99.90
2022-11-30T10:27:13.237Z,99.90
2022-11-30T10:29:44.574Z,99.90
2022-11-30T10:30:50.596Z,99.90
2022-11-30T10:32:01.337Z,99.90
2022-11-30T10:33:13.868Z,99.90
2022-11-30T10:34:22.357Z,99.90
2022-11-30T10:35:38.543Z,99.90
2022-11-30T10:36:44.576Z,99.90
2022-11-30T10:37:52.316Z,99.90
2022-11-30T10:39:00.425Z,99.90
2022-11-30T10:40:10.983Z,99.90
2022-11-30T10:41:21.326Z,99.90
2022-11-30T10:42:33.675Z,99.90
2022-11-30T10:43:45.238Z,99.90
2022-11-30T10:45:01.064Z,99.90
2022-11-30T10:46:04.188Z,99.90
2022-11-30T10:47:17.280Z,99.90
2022-11-30T10:48:29.983Z,99.90
2022-11-30T10:49:37.159Z,99.90
2022-11-30T10:50:43.033Z,99.90
2022-11-30T10:51:52.525Z,99.90
2022-11-30T10:53:00.375Z,99.90
2022-11-30T10:54:15.001Z,99.90
2022-11-30T10:55:23.631Z,99.90
2022-11-30T10:56:27.457Z,99.90
2022-11-30T10:57:32.662Z,99.90
2022-11-30T10:58:41.500Z,99.90
2022-11-30T10:59:49.162Z,99.90
2022-11-30T11:01:03.612Z,99.90
2022-11-30T11:02:38.436Z,99.90
2022-11-30T11:03:41.860Z,99.90
2022-11-30T11:04:45.216Z,99.90
2022-11-30T11:06:06.644Z,99.90
2022-11-30T11:07:15.154Z,99.90
2022-11-30T11:08:25.847Z,99.90
2022-11-30T11:09:39.674Z,99.90
2022-11-30T11:10:47.026Z,99.90
2022-11-30T11:11:54.754Z,99.90
2022-11-30T11:12:59.111Z,99.90
2022-11-30T11:14:17.471Z,99.90
2022-11-30T11:15:24.253Z,99.90
2022-11-30T11:16:28.129Z,99.90
2022-11-30T11:17:33.122Z,99.90
2022-11-30T11:18:38.489Z,99.90
2022-11-30T11:19:43.678Z,99.90
2022-11-30T11:20:47.086Z,99.90
2022-11-30T11:21:52.757Z,99.90
2022-11-30T11:22:56.048Z,99.90
2022-11-30T11:23:59.851Z,99.90
2022-11-30T11:25:20.733Z,99.90
2022-11-30T11:26:26.533Z,99.90
2022-11-30T11:27:35.786Z,99.90
2022-11-30T11:28:47.210Z,99.90
2022-11-30T11:30:03.901Z,99.90
2022-11-30T11:31:20.352Z,99.90
2022-11-30T11:32:25.982Z,99.90
2022-11-30T11:33:31.419Z,99.90
2022-11-30T11:34:36.419Z,99.90
2022-11-30T11:35:42.879Z,99.90
2022-11-30T11:36:45.638Z,99.90
2022-11-30T11:37:53.639Z,99.90
2022-11-30T11:38:57.793Z,99.90
2022-11-30T11:40:13.966Z,99.90
2022-11-30T11:41:24.481Z,99.90
2022-11-30T11:42:31.026Z,99.90
2022-11-30T11:43:41.817Z,99.90
2022-11-30T11:44:44.561Z,99.90
2022-11-30T11:45:54.196Z,99.90
2022-11-30T11:47:02.325Z,99.90
2022-11-30T11:48:11.769Z,99.90
2022-11-30T11:49:23.878Z,99.90
2022-11-30T11:52:02.462Z,99.90
2022-11-30T11:53:23.099Z,99.90
2022-11-30T11:54:35.928Z,99.90
2022-11-30T11:55:42.634Z,99.90
2022-11-30T11:56:46.452Z,99.90
2022-11-30T11:57:54.953Z,99.90
2022-11-30T11:59:02.384Z,99.90
2022-11-30T12:00:15.574Z,99.90
2022-11-30T12:01:42.960Z,99.90
2022-11-30T12:02:58.444Z,99.90
2022-11-30T12:04:32.447Z,99.90
2022-11-30T12:05:42.883Z,99.90
2022-11-30T12:06:48.238Z,99.90
2022-11-30T12:08:06.093Z,99.90
2022-11-30T12:09:19.543Z,99.90
2022-11-30T12:11:55.886Z,99.90
2022-11-30T12:13:01.049Z,99.90
2022-11-30T12:14:09.499Z,99.90
2022-11-30T12:15:13.966Z,99.90
2022-11-30T12:16:37.182Z,99.90
2022-11-30T12:17:56.780Z,99.90
2022-11-30T12:19:09.737Z,99.90
2022-11-30T12:20:23.775Z,99.90
2022-11-30T12:21:46.247Z,99.90
2022-11-30T12:23:14.174Z,99.90
2022-11-30T12:24:43.926Z,99.90
2022-11-30T12:25:56.560Z,99.90
2022-11-30T12:27:08.640Z,99.90
2022-11-30T12:28:22.897Z,99.90
2022-11-30T12:29:35.597Z,99.90
2022-11-30T12:30:50.816Z,99.90
2022-11-30T12:32:08.694Z,99.90
2022-11-30T12:33:17.800Z,99.90
2022-11-30T12:34:33.643Z,99.90
2022-11-30T12:35:47.300Z,99.90
2022-11-30T12:37:04.281Z,99.90
2022-11-30T12:38:23.702Z,99.90
2022-11-30T12:39:43.977Z,99.90
2022-11-30T12:41:00.302Z,99.90
2022-11-30T12:42:13.616Z,99.90
2022-11-30T12:43:34.163Z,99.90
2022-11-30T12:44:53.715Z,99.90
2022-11-30T12:46:08.294Z,99.90
2022-11-30T12:47:31.444Z,99.90
2022-11-30T12:48:49.145Z,99.90
2022-11-30T12:50:10.314Z,99.90
2022-11-30T12:51:26.441Z,99.90
2022-11-30T12:52:45.386Z,99.90
2022-11-30T12:54:00.015Z,99.90
2022-11-30T12:55:20.270Z,99.90
2022-11-30T12:56:41.309Z,99.90
2022-11-30T12:57:59.984Z,99.90
2022-11-30T12:59:17.479Z,99.90
2022-11-30T13:00:23.472Z,99.90
2022-11-30T13:01:47.991Z,99.90
2022-11-30T13:03:28.078Z,99.90
2022-11-30T13:04:40.562Z,99.90
2022-11-30T13:05:47.835Z,99.90
2022-11-30T13:06:59.375Z,99.90
2022-11-30T13:08:12.136Z,99.90
2022-11-30T13:09:25.018Z,99.90
2022-11-30T13:10:37.197Z,99.90
2022-11-30T13:11:44.571Z,99.90
2022-11-30T13:12:52.871Z,99.90
2022-11-30T13:14:00.587Z,99.90
2022-11-30T13:15:12.433Z,99.90
2022-11-30T13:16:21.852Z,99.90
2022-11-30T13:17:27.023Z,99.90
2022-11-30T13:18:34.939Z,99.90
2022-11-30T13:19:54.303Z,99.90
2022-11-30T13:21:10.965Z,99.90
2022-11-30T13:22:24.727Z,99.90
2022-11-30T13:23:36.257Z,99.90
2022-11-30T13:24:51.029Z,99.90
2022-11-30T13:26:09.552Z,99.90
2022-11-30T13:27:22.903Z,99.90
2022-11-30T13:28:38.390Z,99.90
2022-11-30T13:30:00.451Z,99.90
2022-11-30T13:31:09.059Z,99.90
2022-11-30T13:32:41.042Z,99.90
2022-11-30T13:33:51.052Z,99.90
2022-11-30T13:34:55.500Z,99.90
2022-11-30T13:35:58.987Z,99.90
2022-11-30T13:37:06.778Z,99.90
2022-11-30T13:39:49.468Z,99.90
2022-11-30T13:41:00.917Z,99.90
2022-11-30T13:42:36.394Z,99.90
2022-11-30T13:43:48.317Z,99.90
2022-11-30T13:44:52.047Z,99.90
2022-11-30T13:46:08.015Z,99.90
2022-11-30T13:47:20.171Z,99.90
2022-11-30T13:48:34.811Z,99.90
2022-11-30T13:49:38.994Z,99.90
2022-11-30T13:50:42.670Z,99.90
2022-11-30T13:51:48.126Z,99.90
2022-11-30T13:53:27.319Z,99.90
2022-11-30T13:54:51.613Z,99.90
2022-11-30T13:56:02.311Z,99.90
2022-11-30T13:57:17.911Z,99.90
2022-11-30T13:58:21.373Z,99.90
2022-11-30T13:59:40.895Z,99.90
2022-11-30T14:01:01.456Z,99.90
2022-11-30T14:02:45.330Z,99.90
2022-11-30T14:04:36.570Z,99.90
2022-11-30T14:05:41.437Z,99.90
2022-11-30T14:06:50.652Z,99.90
2022-11-30T14:08:17.542Z,99.90
2022-11-30T14:09:57.279Z,99.90
2022-11-30T14:11:37.621Z,99.90
2022-11-30T14:12:59.853Z,99.90
2022-11-30T14:14:40.618Z,99.90
2022-11-30T14:15:56.860Z,99.90
2022-11-30T14:16:59.624Z,99.90
2022-11-30T14:18:14.936Z,99.90
2022-11-30T14:19:18.720Z,99.90
2022-11-30T14:20:33.251Z,99.90
2022-11-30T14:21:44.297Z,99.90
2022-11-30T14:22:48.065Z,99.90
2022-11-30T14:24:02.352Z,99.90
2022-11-30T14:25:13.624Z,99.90
2022-11-30T14:26:21.989Z,99.90
2022-11-30T14:27:28.585Z,99.90
2022-11-30T14:28:43.075Z,99.90
2022-11-30T14:29:53.470Z,99.90
2022-11-30T14:30:57.019Z,99.90
2022-11-30T14:32:09.475Z,99.90
2022-11-30T14:33:19.982Z,99.90
2022-11-30T14:34:27.700Z,99.90
2022-11-30T14:35:33.099Z,99.90